Date,TemperatureHighF,TemperatureAvgF,TemperatureLowF,DewpointHighF,DewpointAvgF,DewpointLowF,HumidityHigh,HumidityAvg,HumidityLow,PressureMaxIn,PressureMinIn,WindSpeedMaxMPH,WindSpeedAvgMPH,GustSpeedMaxMPH,PrecipitationSumIn
2013-3-1,43.2,39.3,32.5,29.9,26.9,21.4,70,61,50,29.47,29.30,11,3,11,0.00
2013-3-2,36.5,32.2,28.4,22.7,20.4,17.6,70,62,50,29.47,29.40,9,3,10,0.00
2013-3-3,40.6,32.4,27.9,21.1,18.5,15.8,68,57,41,29.49,29.38,12,4,14,0.00
2013-3-4,42.4,33.5,26.2,19.5,15.6,12.6,58,48,35,29.61,29.49,16,5,17,0.00
2013-3-5,50.2,39.0,27.9,27.1,18.0,8.6,65,45,19,29.66,29.41,8,3,10,0.00
2013-3-6,37.8,34.7,32.4,33.1,31.0,27.1,90,87,67,29.58,29.23,20,5,20,0.26
2013-3-7,49.1,40.9,35.1,29.9,27.0,25.3,76,59,42,29.73,29.58,16,4,16,0.00
2013-3-8,50.2,41.2,34.2,27.9,25.8,22.9,72,55,41,29.85,29.71,14,5,18,0.00
2013-3-9,61.9,45.3,30.9,25.6,22.7,19.8,64,43,21,29.93,29.83,5,2,9,0.00
2013-3-10,63.7,46.6,27.3,32.6,20.7,5.3,78,42,10,29.91,29.80,9,2,11,0.00
2013-3-11,59.7,50.2,40.6,47.1,41.7,26.5,87,73,51,29.83,29.52,11,4,11,0.00
2013-3-12,57.6,52.5,41.0,54.1,43.8,28.9,92,73,53,29.55,29.31,10,5,14,0.60
2013-3-13,49.5,40.9,30.0,30.2,23.6,17.1,78,52,29,29.65,29.48,13,4,14,0.00
2013-3-14,44.8,36.5,30.4,18.6,15.3,12.4,59,43,29,29.70,29.61,19,6,21,0.00
2013-3-15,55.9,43.3,26.4,31.8,22.1,16.3,69,45,28,29.67,29.37,8,3,14,0.00
2013-3-16,53.8,44.9,37.4,35.7,32.8,29.6,78,63,49,29.53,29.25,9,3,11,0.00
2013-3-17,40.8,37.2,33.4,30.8,26.7,22.3,83,66,51,29.85,29.50,9,3,11,0.00
2013-3-18,36.5,34.8,32.2,33.2,26.5,19.1,91,73,52,29.90,29.47,11,4,19,0.33
2013-3-19,58.8,45.3,34.7,40.7,26.4,4.1,92,57,15,29.50,29.30,11,4,17,0.01
2013-3-20,50.7,42.5,33.8,22.1,13.9,8.6,54,32,18,29.57,29.35,14,4,14,0.00
2013-3-21,37.2,32.6,26.8,25.5,13.6,6.2,80,46,31,29.47,29.34,12,5,16,0.00
2013-3-22,45.7,34.6,25.9,18.2,15.1,8.2,59,45,31,29.58,29.45,13,3,15,0.00
2013-3-23,52.2,39.2,25.5,23.9,20.5,16.8,71,49,30,29.61,29.50,9,3,11,0.00
2013-3-24,42.4,35.9,27.1,29.2,21.8,18.5,83,57,41,29.92,29.29,6,2,9,0.00
2013-3-25,38.8,34.5,32.2,33.6,30.7,28.8,90,86,81,29.92,29.75,6,1,8,0.25
2013-3-26,50.5,41.2,30.9,35.0,29.5,25.2,91,66,38,30.21,29.92,9,2,57,0.01
2013-3-27,48.7,42.2,37.6,30.5,26.9,22.9,66,55,38,30.34,30.21,13,4,15,0.00
2013-3-28,49.1,42.3,34.9,30.4,27.6,24.0,69,57,40,30.45,30.30,13,4,15,0.00
2013-3-29,56.5,45.2,36.9,32.0,26.8,23.8,64,50,32,30.48,30.37,9,2,12,0.00
2013-3-30,59.9,45.2,30.0,34.7,25.3,16.3,80,50,18,30.45,30.34,7,2,9,0.00
2013-3-31,51.4,45.2,36.9,47.9,37.6,26.4,90,75,58,30.36,29.98,4,1,7,0.05